createdAt,value
2019-05-30T00:00:42.287Z,92.60
2019-05-30T00:03:12.303Z,92.80
2019-05-30T00:05:42.299Z,92.80
2019-05-30T00:08:12.395Z,92.90
2019-05-30T00:10:42.402Z,93.10
2019-05-30T00:13:12.423Z,93.30
2019-05-30T00:15:42.927Z,93.30
2019-05-30T00:18:12.950Z,93.20
2019-05-30T00:20:43.112Z,93.10
2019-05-30T00:23:13.397Z,93.20
2019-05-30T00:25:43.504Z,93.30
2019-05-30T00:28:13.552Z,93.30
2019-05-30T00:30:43.556Z,93.50
2019-05-30T00:33:13.563Z,93.50
2019-05-30T00:35:43.597Z,93.40
2019-05-30T00:38:13.767Z,93.60
2019-05-30T00:40:43.843Z,93.70
2019-05-30T00:43:13.859Z,93.90
2019-05-30T00:45:43.848Z,94.00
2019-05-30T00:48:13.887Z,93.90
2019-05-30T00:50:43.873Z,93.90
2019-05-30T00:53:13.974Z,94.00
2019-05-30T00:55:44.015Z,94.40
2019-05-30T00:58:14.171Z,94.10
2019-05-30T01:00:44.501Z,94.20
2019-05-30T01:03:14.751Z,94.30
2019-05-30T01:05:45.867Z,94.30
2019-05-30T01:08:15.888Z,94.30
2019-05-30T01:10:45.890Z,94.50
2019-05-30T01:13:15.986Z,94.70
2019-05-30T01:15:46.020Z,94.70
2019-05-30T01:18:16.071Z,94.70
2019-05-30T01:20:46.228Z,94.70
2019-05-30T01:23:16.375Z,94.80
2019-05-30T01:25:46.415Z,94.90
2019-05-30T01:28:16.475Z,95.10
2019-05-30T01:30:58.956Z,95.20
2019-05-30T01:33:18.350Z,95.10
2019-05-30T01:35:48.365Z,94.90
2019-05-30T01:38:18.400Z,94.90
2019-05-30T01:40:48.419Z,95.00
2019-05-30T01:43:18.446Z,94.90
2019-05-30T01:45:48.565Z,94.90
2019-05-30T01:48:19.707Z,94.90
2019-05-30T01:50:50.040Z,94.90
2019-05-30T01:53:21.133Z,95.10
2019-05-30T01:55:51.134Z,95.10
2019-05-30T01:58:22.296Z,95.10
2019-05-30T02:00:52.355Z,95.00
2019-05-30T02:03:22.437Z,95.10
2019-05-30T02:05:52.549Z,95.00
2019-05-30T02:08:22.567Z,94.90
2019-05-30T02:10:52.807Z,95.10
2019-05-30T02:13:22.983Z,95.30
2019-05-30T02:15:53.087Z,95.40
2019-05-30T02:18:23.214Z,95.50
2019-05-30T02:20:53.248Z,95.80
2019-05-30T02:23:23.302Z,95.60
2019-05-30T02:25:53.353Z,95.60
2019-05-30T02:28:23.346Z,95.80
2019-05-30T02:30:53.386Z,96.00
2019-05-30T02:33:23.397Z,95.90
2019-05-30T02:35:53.555Z,95.80
2019-05-30T02:38:24.648Z,95.50
2019-05-30T02:40:54.752Z,95.60
2019-05-30T02:43:24.919Z,95.60
2019-05-30T02:45:54.960Z,95.60
2019-05-30T02:48:24.964Z,95.70
2019-05-30T02:50:54.985Z,96.00
2019-05-30T02:53:24.978Z,95.40
2019-05-30T02:55:55.004Z,95.40
2019-05-30T02:58:25.003Z,95.40
2019-05-30T03:00:55.035Z,95.30
2019-05-30T03:03:25.037Z,95.40
2019-05-30T03:05:55.432Z,95.50
2019-05-30T03:08:25.421Z,95.70
2019-05-30T03:10:57.085Z,96.00
2019-05-30T03:13:27.207Z,96.00
2019-05-30T03:15:57.294Z,96.00
2019-05-30T03:18:27.285Z,96.00
2019-05-30T03:20:57.367Z,96.10
2019-05-30T03:23:27.724Z,96.00
2019-05-30T03:25:57.756Z,95.90
2019-05-30T03:28:28.050Z,96.00
2019-05-30T03:30:59.065Z,96.10
2019-05-30T03:33:39.432Z,96.00
2019-05-30T03:36:04.906Z,96.00
2019-05-30T03:38:33.011Z,96.00
2019-05-30T03:41:04.720Z,96.10
2019-05-30T03:43:34.748Z,95.90
2019-05-30T03:46:08.681Z,95.80
2019-05-30T03:48:41.472Z,95.90
2019-05-30T03:51:15.103Z,95.70
2019-05-30T03:53:45.699Z,95.70
2019-05-30T03:56:19.547Z,95.60
2019-05-30T03:59:00.172Z,95.50
2019-05-30T04:01:36.597Z,95.40
2019-05-30T04:04:16.905Z,95.50
2019-05-30T04:06:51.114Z,95.50
2019-05-30T04:09:25.170Z,95.20
2019-05-30T04:12:21.325Z,94.80
2019-05-30T04:14:54.271Z,94.80
2019-05-30T04:17:24.344Z,95.00
2019-05-30T04:19:54.436Z,94.40
2019-05-30T04:22:24.461Z,94.50
2019-05-30T04:24:54.520Z,94.10
2019-05-30T04:27:24.535Z,94.00
2019-05-30T04:29:54.577Z,93.90
2019-05-30T04:32:24.597Z,93.80
2019-05-30T04:34:54.596Z,93.80
2019-05-30T04:37:24.638Z,93.40
2019-05-30T04:39:54.648Z,93.60
2019-05-30T04:42:24.689Z,93.20
2019-05-30T04:44:54.707Z,93.10
2019-05-30T04:47:24.728Z,92.80
2019-05-30T04:49:54.751Z,92.60
2019-05-30T04:52:25.175Z,92.30
2019-05-30T04:54:56.235Z,92.20
2019-05-30T04:57:27.250Z,92.00
2019-05-30T04:59:57.699Z,91.80
2019-05-30T05:02:27.762Z,92.00
2019-05-30T05:04:57.862Z,92.00
2019-05-30T05:07:27.887Z,91.80
2019-05-30T05:09:57.974Z,91.50
2019-05-30T05:12:28.097Z,91.60
2019-05-30T05:14:58.299Z,91.60
2019-05-30T05:17:28.425Z,91.30
2019-05-30T05:19:58.483Z,91.40
2019-05-30T05:22:28.530Z,91.30
2019-05-30T05:24:58.596Z,90.90
2019-05-30T05:27:28.719Z,91.00
2019-05-30T05:29:58.829Z,90.80
2019-05-30T05:32:29.131Z,90.40
2019-05-30T05:34:59.247Z,89.50
2019-05-30T05:37:29.273Z,88.70
2019-05-30T05:39:59.392Z,87.90
2019-05-30T05:42:30.409Z,87.70
2019-05-30T05:45:01.738Z,87.20
2019-05-30T05:47:31.865Z,87.00
2019-05-30T05:50:01.901Z,85.30
2019-05-30T05:52:33.111Z,84.70
2019-05-30T05:55:03.149Z,84.40
2019-05-30T05:57:33.220Z,84.30
2019-05-30T06:00:03.398Z,83.60
2019-05-30T06:02:34.631Z,83.40
2019-05-30T06:05:05.611Z,82.70
2019-05-30T06:07:35.936Z,77.60
2019-05-30T06:10:06.763Z,70.10
2019-05-30T06:12:36.931Z,66.60
2019-05-30T06:15:07.487Z,63.50
2019-05-30T06:17:37.559Z,59.70
2019-05-30T06:20:07.929Z,55.60
2019-05-30T06:22:38.099Z,51.40
2019-05-30T06:25:08.313Z,49.50
2019-05-30T06:27:38.457Z,49.10
2019-05-30T06:30:10.183Z,52.20
2019-05-30T06:32:41.439Z,55.30
2019-05-30T06:35:11.750Z,58.80
2019-05-30T06:37:41.791Z,60.70
2019-05-30T06:40:12.253Z,61.20
2019-05-30T06:42:42.391Z,60.10
2019-05-30T06:45:13.518Z,55.40
2019-05-30T06:47:43.569Z,50.30
2019-05-30T06:50:13.995Z,48.00
2019-05-30T06:52:44.159Z,48.40
2019-05-30T06:55:14.710Z,47.00
2019-05-30T06:57:44.860Z,46.30
2019-05-30T07:00:16.464Z,43.60
2019-05-30T07:02:46.522Z,41.50
2019-05-30T07:05:17.409Z,39.60
2019-05-30T07:07:48.039Z,37.50
2019-05-30T07:10:18.772Z,37.10
2019-05-30T07:12:48.809Z,37.70
2019-05-30T07:15:19.158Z,39.00
2019-05-30T07:17:49.178Z,38.10
2019-05-30T07:20:19.603Z,38.80
2019-05-30T07:22:49.693Z,40.30
2019-05-30T07:25:19.999Z,37.30
2019-05-30T07:27:50.082Z,35.00
2019-05-30T07:30:23.702Z,34.00
2019-05-30T07:32:53.922Z,32.80
2019-05-30T07:35:24.047Z,31.80
2019-05-30T07:37:54.223Z,32.30
2019-05-30T07:40:24.860Z,34.20
2019-05-30T07:42:54.890Z,34.40
2019-05-30T07:45:25.415Z,35.30
2019-05-30T07:47:55.523Z,36.10
2019-05-30T07:50:26.320Z,35.80
2019-05-30T07:52:56.468Z,33.30
2019-05-30T07:55:26.935Z,31.50
2019-05-30T07:57:57.025Z,30.90
2019-05-30T08:00:27.520Z,32.80
2019-05-30T08:02:57.555Z,34.40
2019-05-30T08:05:28.646Z,34.60
2019-05-30T08:07:59.101Z,34.40
2019-05-30T08:10:29.929Z,35.90
2019-05-30T08:13:00.294Z,35.80
2019-05-30T08:15:33.550Z,33.90
2019-05-30T08:18:03.659Z,34.10
2019-05-30T08:20:33.968Z,32.40
2019-05-30T08:23:05.209Z,32.40
2019-05-30T08:25:36.567Z,32.50
2019-05-30T08:28:06.864Z,31.90
2019-05-30T08:30:36.905Z,34.00
2019-05-30T08:33:07.046Z,33.30
2019-05-30T08:35:47.559Z,32.70
2019-05-30T08:38:08.972Z,32.50
2019-05-30T08:40:39.580Z,32.00
2019-05-30T08:43:09.740Z,32.70
2019-05-30T08:45:40.046Z,34.80
2019-05-30T08:48:11.288Z,33.00
2019-05-30T08:50:44.592Z,35.00
2019-05-30T08:53:13.966Z,34.80
2019-05-30T08:55:44.293Z,32.30
2019-05-30T08:58:14.291Z,31.50
2019-05-30T09:00:44.445Z,31.60
2019-05-30T09:03:14.497Z,33.00
2019-05-30T09:05:59.295Z,33.60
2019-05-30T09:08:16.437Z,33.80
2019-05-30T09:10:46.572Z,33.60
2019-05-30T09:13:16.770Z,34.30
2019-05-30T09:15:47.103Z,35.90
2019-05-30T09:18:17.341Z,37.00
2019-05-30T09:20:47.522Z,38.20
2019-05-30T09:23:17.671Z,37.90
2019-05-30T09:25:49.360Z,39.30
2019-05-30T09:28:20.824Z,39.50
2019-05-30T09:30:50.859Z,39.70
2019-05-30T09:33:21.059Z,39.80
2019-05-30T09:35:51.246Z,39.10
2019-05-30T09:38:21.523Z,37.50
2019-05-30T09:40:51.743Z,36.90
2019-05-30T09:43:25.023Z,37.50
2019-05-30T09:45:55.071Z,37.00
2019-05-30T09:48:25.545Z,35.60
2019-05-30T09:50:55.625Z,35.30
2019-05-30T09:53:25.711Z,36.70
2019-05-30T09:55:55.843Z,39.50
2019-05-30T09:58:25.935Z,41.00
2019-05-30T10:00:56.028Z,41.10
2019-05-30T10:03:26.094Z,40.20
2019-05-30T10:05:56.214Z,41.00
2019-05-30T10:08:26.325Z,41.50
2019-05-30T10:10:56.424Z,43.00
2019-05-30T10:13:26.597Z,43.50
2019-05-30T10:15:56.807Z,44.00
2019-05-30T10:18:26.933Z,44.60
2019-05-30T10:20:57.173Z,44.60
2019-05-30T10:23:27.400Z,44.20
2019-05-30T10:25:57.664Z,44.90
2019-05-30T10:28:27.936Z,44.10
2019-05-30T10:30:59.425Z,43.90
2019-05-30T10:33:29.616Z,43.80
2019-05-30T10:35:59.716Z,44.80
2019-05-30T10:38:29.820Z,45.50
2019-05-30T10:40:59.862Z,45.40
2019-05-30T10:43:29.931Z,44.30
2019-05-30T10:46:01.107Z,43.80
2019-05-30T10:48:31.346Z,43.90
2019-05-30T10:51:01.463Z,44.90
2019-05-30T10:53:31.593Z,45.00
2019-05-30T10:56:01.643Z,45.10
2019-05-30T10:58:31.700Z,44.90
2019-05-30T11:01:01.907Z,44.40
2019-05-30T11:03:32.050Z,43.10
2019-05-30T11:06:39.981Z,42.40
2019-05-30T11:09:10.417Z,43.00
2019-05-30T11:11:40.558Z,43.20
2019-05-30T11:14:10.663Z,43.00
2019-05-30T11:16:41.783Z,42.80
2019-05-30T11:19:12.047Z,43.90
2019-05-30T11:21:42.163Z,44.90
2019-05-30T11:24:12.337Z,44.70
2019-05-30T11:26:42.638Z,45.40
2019-05-30T11:29:12.762Z,46.50
2019-05-30T11:31:42.887Z,46.00
2019-05-30T11:34:14.505Z,44.60
2019-05-30T11:36:44.618Z,43.70
2019-05-30T11:39:14.672Z,43.40
2019-05-30T11:41:46.256Z,45.00
2019-05-30T11:44:16.429Z,46.60
2019-05-30T11:46:47.530Z,46.80
2019-05-30T11:49:17.645Z,46.90
2019-05-30T11:51:47.740Z,46.70
2019-05-30T11:54:17.856Z,46.20
2019-05-30T11:56:48.034Z,45.00
2019-05-30T11:59:18.175Z,44.60
2019-05-30T12:01:48.275Z,43.90
2019-05-30T12:04:18.436Z,44.30
2019-05-30T12:06:48.768Z,43.10
2019-05-30T12:09:18.935Z,42.60
2019-05-30T12:11:49.072Z,42.00
2019-05-30T12:14:21.351Z,41.60
2019-05-30T12:16:51.188Z,40.40
2019-05-30T12:19:21.369Z,40.50
2019-05-30T12:21:51.579Z,40.70
2019-05-30T12:24:21.723Z,40.00
2019-05-30T12:26:51.912Z,39.70
2019-05-30T12:29:22.099Z,40.00
2019-05-30T12:31:55.208Z,41.00
2019-05-30T12:34:24.076Z,41.40
2019-05-30T12:36:54.391Z,41.20
2019-05-30T12:39:24.635Z,41.70
2019-05-30T12:41:54.910Z,42.40
2019-05-30T12:44:25.029Z,42.40
2019-05-30T12:46:55.551Z,41.90
2019-05-30T12:49:25.816Z,42.10
2019-05-30T12:51:56.207Z,42.40
2019-05-30T12:54:26.575Z,42.50
2019-05-30T12:56:56.721Z,42.50
2019-05-30T12:59:26.845Z,42.60
2019-05-30T13:01:56.977Z,42.80
2019-05-30T13:04:28.280Z,42.50
2019-05-30T13:06:59.373Z,42.50
2019-05-30T13:09:29.796Z,43.10
2019-05-30T13:12:00.562Z,42.50
2019-05-30T13:14:30.938Z,42.20
2019-05-30T13:17:01.856Z,42.30
2019-05-30T13:19:33.010Z,42.30
2019-05-30T13:22:03.490Z,42.30
2019-05-30T13:24:34.828Z,41.50
2019-05-30T13:27:05.933Z,41.30
2019-05-30T13:29:36.459Z,42.00
2019-05-30T13:32:06.729Z,42.80
2019-05-30T13:34:38.022Z,42.40
2019-05-30T13:37:08.123Z,42.60
2019-05-30T13:39:38.218Z,42.80
2019-05-30T13:42:08.267Z,43.20
2019-05-30T13:44:38.293Z,43.40
2019-05-30T13:47:08.862Z,44.10
2019-05-30T13:49:39.249Z,45.40
2019-05-30T13:52:09.414Z,45.90
2019-05-30T13:54:40.650Z,44.70
2019-05-30T13:57:10.829Z,44.80
2019-05-30T13:59:40.883Z,43.70
2019-05-30T14:02:11.018Z,43.30
2019-05-30T14:04:41.183Z,43.50
2019-05-30T14:07:11.390Z,43.90
2019-05-30T14:09:42.554Z,44.20
2019-05-30T14:12:12.698Z,43.80
2019-05-30T14:14:43.846Z,44.80
2019-05-30T14:17:15.012Z,45.70
2019-05-30T14:19:45.059Z,46.00
2019-05-30T14:22:15.147Z,45.90
2019-05-30T14:24:45.311Z,45.90
2019-05-30T14:27:15.499Z,46.50
2019-05-30T14:29:45.856Z,46.30
2019-05-30T14:32:16.107Z,46.40
2019-05-30T14:34:46.160Z,47.20
2019-05-30T14:37:16.340Z,47.40
2019-05-30T14:39:46.399Z,47.30
2019-05-30T14:42:16.560Z,47.40
2019-05-30T14:44:46.698Z,47.40
2019-05-30T14:47:17.006Z,47.50
2019-05-30T14:49:47.323Z,47.40
2019-05-30T14:52:17.355Z,48.10
2019-05-30T14:54:47.450Z,48.00
2019-05-30T14:57:17.702Z,47.50
2019-05-30T14:59:47.797Z,47.80
2019-05-30T15:02:17.943Z,47.70
2019-05-30T15:04:48.067Z,47.60
2019-05-30T15:07:18.146Z,48.00
2019-05-30T15:09:48.160Z,48.00
2019-05-30T15:12:18.324Z,47.60
2019-05-30T15:14:48.495Z,47.30
2019-05-30T15:17:18.664Z,47.50
2019-05-30T15:19:48.927Z,48.20
2019-05-30T15:22:19.196Z,48.60
2019-05-30T15:24:49.264Z,49.00
2019-05-30T15:27:20.772Z,49.00
2019-05-30T15:29:50.994Z,49.30
2019-05-30T15:32:21.080Z,49.70
2019-05-30T15:34:51.107Z,49.70
2019-05-30T15:37:21.204Z,50.30
2019-05-30T15:39:51.289Z,51.00
2019-05-30T15:42:21.392Z,51.20
2019-05-30T15:44:51.580Z,50.90
2019-05-30T15:47:21.851Z,50.50
2019-05-30T15:49:52.532Z,49.90
2019-05-30T15:52:22.865Z,50.10
2019-05-30T15:54:52.925Z,50.20
2019-05-30T15:57:23.052Z,50.50
2019-05-30T15:59:53.277Z,50.30
2019-05-30T16:02:23.324Z,50.70
2019-05-30T16:04:53.351Z,50.80
2019-05-30T16:07:23.483Z,50.40
2019-05-30T16:09:53.579Z,50.40
2019-05-30T16:12:23.627Z,50.30
2019-05-30T16:14:53.743Z,49.70
2019-05-30T16:17:23.811Z,50.30
2019-05-30T16:19:53.839Z,51.10
2019-05-30T16:22:23.921Z,51.70
2019-05-30T16:24:53.962Z,51.30
2019-05-30T16:27:26.087Z,51.10
2019-05-30T16:29:56.254Z,51.20
2019-05-30T16:32:26.330Z,51.70
2019-05-30T16:34:56.376Z,51.90
2019-05-30T16:37:26.487Z,51.90
2019-05-30T16:40:05.845Z,52.10
2019-05-30T16:42:28.416Z,52.20
2019-05-30T16:44:58.464Z,52.70
2019-05-30T16:47:28.623Z,53.10
2019-05-30T16:49:58.967Z,53.70
2019-05-30T16:52:29.136Z,54.20
2019-05-30T16:54:59.347Z,54.70
2019-05-30T16:57:29.560Z,54.10
2019-05-30T16:59:59.745Z,53.70
2019-05-30T17:02:30.135Z,53.40
2019-05-30T17:05:00.353Z,53.60
2019-05-30T17:07:30.625Z,53.40
2019-05-30T17:10:00.694Z,53.10
2019-05-30T17:12:30.714Z,53.50
2019-05-30T17:15:00.958Z,53.50
2019-05-30T17:17:32.361Z,53.90
2019-05-30T17:20:02.573Z,53.60
2019-05-30T17:22:32.696Z,53.20
2019-05-30T17:25:03.031Z,52.80
2019-05-30T17:27:33.347Z,52.40
2019-05-30T17:30:03.502Z,52.80
2019-05-30T17:32:34.630Z,52.70
2019-05-30T17:35:05.518Z,52.80
2019-05-30T17:37:35.575Z,53.40
2019-05-30T17:40:06.559Z,54.00
2019-05-30T17:42:36.788Z,56.10
2019-05-30T17:45:08.236Z,55.80
2019-05-30T17:47:38.388Z,56.50
2019-05-30T17:50:09.428Z,57.00
2019-05-30T17:52:40.526Z,57.50
2019-05-30T17:55:11.753Z,57.60
2019-05-30T17:57:42.099Z,58.10
2019-05-30T18:00:14.573Z,58.60
2019-05-30T18:02:44.764Z,59.00
2019-05-30T18:05:15.332Z,59.50
2019-05-30T18:07:46.347Z,59.70
2019-05-30T18:10:17.351Z,60.20
2019-05-30T18:12:47.370Z,60.50
2019-05-30T18:15:19.231Z,60.50
2019-05-30T18:17:49.378Z,60.60
2019-05-30T18:20:21.163Z,60.70
2019-05-30T18:22:51.308Z,60.90
2019-05-30T18:25:21.617Z,61.10
2019-05-30T18:27:51.795Z,61.80
2019-05-30T18:30:25.886Z,62.50
2019-05-30T18:32:56.020Z,64.00
2019-05-30T18:35:26.307Z,63.40
2019-05-30T18:37:56.622Z,63.60
2019-05-30T18:40:33.219Z,64.40
2019-05-30T18:43:04.027Z,64.20
2019-05-30T18:45:41.411Z,64.40
2019-05-30T18:48:11.928Z,64.80
2019-05-30T18:50:42.265Z,64.90
2019-05-30T18:53:12.431Z,65.00
2019-05-30T18:55:42.586Z,65.50
2019-05-30T18:58:12.694Z,66.00
2019-05-30T19:00:42.807Z,66.50
2019-05-30T19:03:12.850Z,67.80
2019-05-30T19:05:42.949Z,67.60
2019-05-30T19:08:13.105Z,68.10
2019-05-30T19:10:43.248Z,68.50
2019-05-30T19:13:13.338Z,68.80
2019-05-30T19:15:43.568Z,69.10
2019-05-30T19:18:13.599Z,69.10
2019-05-30T19:20:43.693Z,69.50
2019-05-30T19:23:13.919Z,69.80
2019-05-30T19:25:44.491Z,70.60
2019-05-30T19:28:14.655Z,70.70
2019-05-30T19:30:44.690Z,70.90
2019-05-30T19:33:14.797Z,72.00
2019-05-30T19:35:44.842Z,71.40
2019-05-30T19:38:14.891Z,71.90
2019-05-30T19:40:45.039Z,71.90
2019-05-30T19:43:15.274Z,72.10
2019-05-30T19:45:45.403Z,72.60
2019-05-30T19:48:15.408Z,73.10
2019-05-30T19:50:45.434Z,73.10
2019-05-30T19:53:15.429Z,73.70
2019-05-30T19:55:45.451Z,73.80
2019-05-30T19:58:15.474Z,73.80
2019-05-30T20:00:57.852Z,73.80
2019-05-30T20:03:17.277Z,74.20
2019-05-30T20:05:47.371Z,74.30
2019-05-30T20:08:18.350Z,74.20
2019-05-30T20:10:48.360Z,74.10
2019-05-30T20:13:18.420Z,74.00
2019-05-30T20:15:48.447Z,74.30
2019-05-30T20:18:18.455Z,74.30
2019-05-30T20:20:57.263Z,74.20
2019-05-30T20:23:20.203Z,74.00
2019-05-30T20:25:50.254Z,74.00
2019-05-30T20:28:20.349Z,74.20
2019-05-30T20:30:50.398Z,74.20
2019-05-30T20:33:20.405Z,74.40
2019-05-30T20:35:50.474Z,74.40
2019-05-30T20:38:20.483Z,74.70
2019-05-30T20:40:50.478Z,74.80
2019-05-30T20:43:20.521Z,74.80
2019-05-30T20:45:50.692Z,74.80
2019-05-30T20:48:20.720Z,75.00
2019-05-30T20:50:50.707Z,75.40
2019-05-30T20:53:20.738Z,75.80
2019-05-30T20:55:50.780Z,76.10
2019-05-30T20:58:20.815Z,76.50
2019-05-30T21:00:50.874Z,76.90
2019-05-30T21:03:20.963Z,77.10
2019-05-30T21:05:51.671Z,77.60
2019-05-30T21:08:22.569Z,78.00
2019-05-30T21:10:54.463Z,77.90
2019-05-30T21:13:25.076Z,78.00
2019-05-30T21:15:59.054Z,78.10
2019-05-30T21:18:30.112Z,78.40
2019-05-30T21:21:00.124Z,78.30
2019-05-30T21:23:30.140Z,78.30
2019-05-30T21:26:00.234Z,78.30
2019-05-30T21:28:30.347Z,78.50
2019-05-30T21:31:00.344Z,78.60
2019-05-30T21:33:30.513Z,78.40
2019-05-30T21:36:00.500Z,78.40
2019-05-30T21:38:30.706Z,78.70
2019-05-30T21:41:00.732Z,78.60
2019-05-30T21:43:30.828Z,78.50
2019-05-30T21:46:00.816Z,78.70
2019-05-30T21:48:30.912Z,78.80
2019-05-30T21:51:00.971Z,78.90
2019-05-30T21:53:30.971Z,78.80
2019-05-30T21:56:01.796Z,79.10
2019-05-30T21:58:31.915Z,80.00
2019-05-30T22:01:31.999Z,79.80
2019-05-30T22:04:02.788Z,79.60
2019-05-30T22:06:33.055Z,80.20
2019-05-30T22:09:04.521Z,80.50
2019-05-30T22:11:34.653Z,80.70
2019-05-30T22:14:04.800Z,80.70
2019-05-30T22:16:34.802Z,81.00
2019-05-30T22:19:05.507Z,81.00
2019-05-30T22:21:35.499Z,81.00
2019-05-30T22:24:05.786Z,81.10
2019-05-30T22:26:35.805Z,81.10
2019-05-30T22:29:05.836Z,81.40
2019-05-30T22:31:35.830Z,81.60
2019-05-30T22:34:06.207Z,81.70
2019-05-30T22:36:36.207Z,82.10
2019-05-30T22:39:08.903Z,82.30
2019-05-30T22:41:39.224Z,82.70
2019-05-30T22:44:09.316Z,83.00
2019-05-30T22:46:39.302Z,83.00
2019-05-30T22:49:09.326Z,83.30
2019-05-30T22:51:39.336Z,83.70
2019-05-30T22:54:09.412Z,84.10
2019-05-30T22:56:39.399Z,84.30
2019-05-30T22:59:09.483Z,84.10
2019-05-30T23:01:39.606Z,84.00
2019-05-30T23:04:09.583Z,84.30
2019-05-30T23:06:39.600Z,84.70
2019-05-30T23:09:09.623Z,85.00
2019-05-30T23:11:39.643Z,85.30
2019-05-30T23:14:10.722Z,85.50
2019-05-30T23:16:40.781Z,85.70
2019-05-30T23:19:10.773Z,85.90
2019-05-30T23:21:40.791Z,85.90
2019-05-30T23:24:10.784Z,85.90
2019-05-30T23:26:40.824Z,85.90
2019-05-30T23:29:10.838Z,86.10
2019-05-30T23:31:40.882Z,86.30
2019-05-30T23:34:10.872Z,86.30
2019-05-30T23:36:40.903Z,86.40
2019-05-30T23:39:10.927Z,86.60
2019-05-30T23:41:40.998Z,86.80
2019-05-30T23:44:12.077Z,87.00
2019-05-30T23:46:42.371Z,87.20
2019-05-30T23:49:12.363Z,87.30
2019-05-30T23:51:42.376Z,87.70
2019-05-30T23:54:12.436Z,87.70
2019-05-30T23:56:42.634Z,87.80
2019-05-30T23:59:12.722Z,88.00
